Time;durP1;ratioP1;P1;durP2;ratioP2;P2;SDS_P1;SDS_P2;PMS_P1;PMS_P2;Temp;Humidity;BMP_temperature;BMP_pressure;BME280_temperature;BME280_humidity;BME280_pressure;Samples;Min_cycle;Max_cycle;Signal;HPM_P1;HPM_P2
2022/03/25 00:00:47;;;;;;;565.33;512.87;;;;;;;;;;;;;-51
2022/03/25 00:03:46;;;;;;;566.13;513.61;;;;;;;;;;;;;-52
2022/03/25 00:06:46;;;;;;;566.38;513.84;;;;;;;;;;;;;-53
2022/03/25 00:09:46;;;;;;;563.59;511.20;;;;;;;;;;;;;-52
2022/03/25 00:12:46;;;;;;;564.11;511.81;;;;;;;;;;;;;-51
2022/03/25 00:15:46;;;;;;;564.44;511.95;;;;;;;;;;;;;-53
2022/03/25 00:18:46;;;;;;;561.81;509.53;;;;;;;;;;;;;-53
2022/03/25 00:21:46;;;;;;;565.87;513.42;;;;;;;;;;;;;-59
2022/03/25 00:24:46;;;;;;;562.85;510.55;;;;;;;;;;;;;-53
2022/03/25 00:27:46;;;;;;;564.03;511.55;;;;;;;;;;;;;-59
2022/03/25 00:30:46;;;;;;;563.59;511.06;;;;;;;;;;;;;-59
2022/03/25 00:33:49;;;;;;;561.40;508.99;;;;;;;;;;;;;-53
2022/03/25 00:36:46;;;;;;;565.91;513.38;;;;;;;;;;;;;-52
2022/03/25 00:39:46;;;;;;;564.88;512.61;;;;;;;;;;;;;-53
2022/03/25 00:42:47;;;;;;;566.16;513.71;;;;;;;;;;;;;-53
2022/03/25 00:45:46;;;;;;;560.98;508.57;;;;;;;;;;;;;-60
2022/03/25 00:48:46;;;;;;;562.77;510.36;;;;;;;;;;;;;-59
2022/03/25 00:51:46;;;;;;;568.65;515.93;;;;;;;;;;;;;-59
2022/03/25 00:54:46;;;;;;;561.08;508.66;;;;;;;;;;;;;-59
2022/03/25 00:57:46;;;;;;;565.25;512.71;;;;;;;;;;;;;-58
2022/03/25 01:00:46;;;;;;;567.94;515.39;;;;;;;;;;;;;-60
2022/03/25 01:03:46;;;;;;;563.99;511.50;;;;;;;;;;;;;-57
2022/03/25 01:06:46;;;;;;;563.95;511.41;;;;;;;;;;;;;-59
2022/03/25 01:09:46;;;;;;;559.29;506.97;;;;;;;;;;;;;-57
2022/03/25 01:12:46;;;;;;;563.67;511.20;;;;;;;;;;;;;-57
2022/03/25 01:15:46;;;;;;;564.61;512.17;;;;;;;;;;;;;-59
2022/03/25 01:18:46;;;;;;;561.93;509.59;;;;;;;;;;;;;-59
2022/03/25 01:21:46;;;;;;;563.01;510.51;;;;;;;;;;;;;-59
2022/03/25 01:24:46;;;;;;;564.73;512.30;;;;;;;;;;;;;-51
2022/03/25 01:27:46;;;;;;;559.58;507.21;;;;;;;;;;;;;-52
2022/03/25 01:30:46;;;;;;;563.06;510.66;;;;;;;;;;;;;-52
2022/03/25 01:33:46;;;;;;;558.80;506.46;;;;;;;;;;;;;-52
2022/03/25 01:36:46;;;;;;;562.60;510.03;;;;;;;;;;;;;-57
2022/03/25 01:39:46;;;;;;;557.08;504.81;;;;;;;;;;;;;-57
2022/03/25 01:42:46;;;;;;;558.89;506.68;;;;;;;;;;;;;-52
2022/03/25 01:45:46;;;;;;;559.75;507.39;;;;;;;;;;;;;-51
2022/03/25 01:48:46;;;;;;;558.62;506.39;;;;;;;;;;;;;-53
2022/03/25 01:51:46;;;;;;;558.32;506.12;;;;;;;;;;;;;-52
2022/03/25 01:54:46;;;;;;;560.11;507.70;;;;;;;;;;;;;-52
2022/03/25 01:57:46;;;;;;;560.23;507.87;;;;;;;;;;;;;-53
2022/03/25 02:00:46;;;;;;;561.44;509.03;;;;;;;;;;;;;-59
2022/03/25 02:03:47;;;;;;;562.55;510.19;;;;;;;;;;;;;-60
2022/03/25 02:06:46;;;;;;;561.34;509.10;;;;;;;;;;;;;-59
2022/03/25 02:09:46;;;;;;;561.50;509.17;;;;;;;;;;;;;-59
2022/03/25 02:12:46;;;;;;;558.06;505.75;;;;;;;;;;;;;-59
2022/03/25 02:15:47;;;;;;;558.35;506.11;;;;;;;;;;;;;-60
2022/03/25 02:18:46;;;;;;;558.60;506.27;;;;;;;;;;;;;-57
2022/03/25 02:21:46;;;;;;;559.37;506.96;;;;;;;;;;;;;-57
2022/03/25 02:24:47;;;;;;;560.31;507.87;;;;;;;;;;;;;-57
2022/03/25 02:27:46;;;;;;;556.65;504.43;;;;;;;;;;;;;-51
2022/03/25 02:30:46;;;;;;;556.68;504.43;;;;;;;;;;;;;-52
2022/03/25 02:33:46;;;;;;;557.23;504.81;;;;;;;;;;;;;-53
2022/03/25 02:36:46;;;;;;;560.73;508.20;;;;;;;;;;;;;-51
2022/03/25 02:39:46;;;;;;;560.32;507.89;;;;;;;;;;;;;-52
2022/03/25 02:42:46;;;;;;;557.11;504.77;;;;;;;;;;;;;-52
2022/03/25 02:45:46;;;;;;;558.42;506.04;;;;;;;;;;;;;-58
2022/03/25 02:48:46;;;;;;;554.59;502.57;;;;;;;;;;;;;-57
2022/03/25 02:51:46;;;;;;;557.17;504.81;;;;;;;;;;;;;-52
2022/03/25 02:54:46;;;;;;;559.16;506.69;;;;;;;;;;;;;-53
2022/03/25 02:57:46;;;;;;;557.78;505.50;;;;;;;;;;;;;-53
2022/03/25 03:00:46;;;;;;;556.25;504.01;;;;;;;;;;;;;-52
2022/03/25 03:03:46;;;;;;;555.47;503.25;;;;;;;;;;;;;-57
2022/03/25 03:06:46;;;;;;;555.55;503.33;;;;;;;;;;;;;-58
2022/03/25 03:09:46;;;;;;;554.42;502.27;;;;;;;;;;;;;-57
2022/03/25 03:12:46;;;;;;;556.44;504.11;;;;;;;;;;;;;-58
2022/03/25 03:15:46;;;;;;;556.51;504.24;;;;;;;;;;;;;-58
2022/03/25 03:18:46;;;;;;;556.22;503.97;;;;;;;;;;;;;-52
2022/03/25 03:21:46;;;;;;;553.63;501.48;;;;;;;;;;;;;-51
2022/03/25 03:24:46;;;;;;;553.20;501.05;;;;;;;;;;;;;-59
2022/03/25 03:27:46;;;;;;;556.06;503.83;;;;;;;;;;;;;-59
2022/03/25 03:30:46;;;;;;;550.55;498.43;;;;;;;;;;;;;-57
2022/03/25 03:33:46;;;;;;;551.65;499.53;;;;;;;;;;;;;-57
2022/03/25 03:36:46;;;;;;;553.45;501.19;;;;;;;;;;;;;-52
2022/03/25 03:39:46;;;;;;;556.53;504.21;;;;;;;;;;;;;-51
2022/03/25 03:42:46;;;;;;;550.66;498.59;;;;;;;;;;;;;-51
2022/03/25 03:45:46;;;;;;;549.14;497.07;;;;;;;;;;;;;-52
2022/03/25 03:48:46;;;;;;;548.25;496.36;;;;;;;;;;;;;-57
2022/03/25 03:51:46;;;;;;;551.71;499.57;;;;;;;;;;;;;-57
2022/03/25 03:54:46;;;;;;;549.82;497.87;;;;;;;;;;;;;-58
2022/03/25 03:57:46;;;;;;;551.63;499.58;;;;;;;;;;;;;-57
2022/03/25 04:00:46;;;;;;;553.65;501.46;;;;;;;;;;;;;-57
2022/03/25 04:03:46;;;;;;;550.02;498.00;;;;;;;;;;;;;-52
2022/03/25 04:06:46;;;;;;;550.49;498.56;;;;;;;;;;;;;-52
2022/03/25 04:09:46;;;;;;;549.97;497.87;;;;;;;;;;;;;-52
2022/03/25 04:12:46;;;;;;;553.05;501.01;;;;;;;;;;;;;-57
2022/03/25 04:15:46;;;;;;;551.01;498.79;;;;;;;;;;;;;-57
2022/03/25 04:18:46;;;;;;;549.79;497.85;;;;;;;;;;;;;-51
2022/03/25 04:21:46;;;;;;;549.25;497.28;;;;;;;;;;;;;-51
2022/03/25 04:24:46;;;;;;;546.43;494.55;;;;;;;;;;;;;-52
2022/03/25 04:27:46;;;;;;;547.27;495.24;;;;;;;;;;;;;-54
2022/03/25 04:30:46;;;;;;;544.68;492.90;;;;;;;;;;;;;-53
2022/03/25 04:33:46;;;;;;;545.41;493.50;;;;;;;;;;;;;-60
2022/03/25 04:36:46;;;;;;;540.45;488.80;;;;;;;;;;;;;-57
2022/03/25 04:39:46;;;;;;;542.15;490.41;;;;;;;;;;;;;-57
2022/03/25 04:42:46;;;;;;;546.77;494.91;;;;;;;;;;;;;-60
2022/03/25 04:45:46;;;;;;;540.82;489.21;;;;;;;;;;;;;-52
2022/03/25 04:48:46;;;;;;;540.14;488.55;;;;;;;;;;;;;-52
2022/03/25 04:51:46;;;;;;;543.09;491.33;;;;;;;;;;;;;-58
2022/03/25 04:54:46;;;;;;;541.28;489.57;;;;;;;;;;;;;-52
2022/03/25 04:57:46;;;;;;;544.39;492.66;;;;;;;;;;;;;-57
2022/03/25 05:00:46;;;;;;;538.67;487.13;;;;;;;;;;;;;-60
2022/03/25 05:03:46;;;;;;;540.80;489.18;;;;;;;;;;;;;-53
2022/03/25 05:06:46;;;;;;;543.33;491.51;;;;;;;;;;;;;-53
2022/03/25 05:09:46;;;;;;;543.05;491.19;;;;;;;;;;;;;-52
2022/03/25 05:12:46;;;;;;;535.37;483.20;;;;;;;;;;;;;-52
2022/03/25 05:15:46;;;;;;;527.00;475.15;;;;;;;;;;;;;-52
2022/03/25 05:18:46;;;;;;;523.84;472.19;;;;;;;;;;;;;-51
2022/03/25 05:21:46;;;;;;;526.23;474.55;;;;;;;;;;;;;-60
2022/03/25 05:24:46;;;;;;;525.07;473.53;;;;;;;;;;;;;-60
2022/03/25 05:27:46;;;;;;;528.30;476.61;;;;;;;;;;;;;-53
2022/03/25 05:30:46;;;;;;;528.34;476.71;;;;;;;;;;;;;-53
2022/03/25 05:33:46;;;;;;;530.12;478.32;;;;;;;;;;;;;-53
2022/03/25 05:36:46;;;;;;;527.07;475.33;;;;;;;;;;;;;-53
2022/03/25 05:39:46;;;;;;;531.41;479.63;;;;;;;;;;;;;-57
2022/03/25 05:42:46;;;;;;;531.10;479.48;;;;;;;;;;;;;-52
2022/03/25 05:45:46;;;;;;;534.87;483.22;;;;;;;;;;;;;-52
2022/03/25 05:48:46;;;;;;;531.77;480.27;;;;;;;;;;;;;-57
2022/03/25 05:51:47;;;;;;;530.67;479.36;;;;;;;;;;;;;-57
2022/03/25 05:54:46;;;;;;;537.00;485.25;;;;;;;;;;;;;-57
2022/03/25 05:57:46;;;;;;;536.19;484.62;;;;;;;;;;;;;-57
2022/03/25 06:00:46;;;;;;;534.45;483.07;;;;;;;;;;;;;-59
2022/03/25 06:03:46;;;;;;;538.13;486.49;;;;;;;;;;;;;-59
2022/03/25 06:06:46;;;;;;;539.89;488.12;;;;;;;;;;;;;-58
2022/03/25 06:09:46;;;;;;;541.10;489.26;;;;;;;;;;;;;-58
2022/03/25 06:12:46;;;;;;;552.72;500.37;;;;;;;;;;;;;-52
2022/03/25 06:15:46;;;;;;;551.79;499.49;;;;;;;;;;;;;-57
2022/03/25 06:18:46;;;;;;;552.41;499.97;;;;;;;;;;;;;-51
2022/03/25 06:21:46;;;;;;;553.31;500.88;;;;;;;;;;;;;-57
2022/03/25 06:24:46;;;;;;;553.89;501.55;;;;;;;;;;;;;-56
2022/03/25 06:27:46;;;;;;;555.43;503.06;;;;;;;;;;;;;-51
2022/03/25 06:30:46;;;;;;;553.95;501.71;;;;;;;;;;;;;-51
2022/03/25 06:33:46;;;;;;;549.64;497.57;;;;;;;;;;;;;-59
2022/03/25 06:36:46;;;;;;;553.90;501.75;;;;;;;;;;;;;-51
2022/03/25 06:39:46;;;;;;;552.17;500.11;;;;;;;;;;;;;-51
2022/03/25 06:42:46;;;;;;;553.67;501.40;;;;;;;;;;;;;-51
2022/03/25 06:45:46;;;;;;;551.48;499.47;;;;;;;;;;;;;-56
2022/03/25 06:48:46;;;;;;;553.78;501.66;;;;;;;;;;;;;-51
2022/03/25 06:51:46;;;;;;;552.37;500.25;;;;;;;;;;;;;-58
2022/03/25 06:54:46;;;;;;;552.58;500.51;;;;;;;;;;;;;-57
2022/03/25 06:57:46;;;;;;;549.33;497.45;;;;;;;;;;;;;-50
2022/03/25 07:00:46;;;;;;;554.62;502.57;;;;;;;;;;;;;-50
2022/03/25 07:03:46;;;;;;;552.22;499.89;;;;;;;;;;;;;-51
2022/03/25 07:06:45;;;;;;;549.50;497.54;;;;;;;;;;;;;-51
2022/03/25 07:09:46;;;;;;;547.67;495.85;;;;;;;;;;;;;-58
2022/03/25 07:12:46;;;;;;;556.49;504.15;;;;;;;;;;;;;-51
2022/03/25 07:15:46;;;;;;;549.75;497.87;;;;;;;;;;;;;-57
2022/03/25 07:18:46;;;;;;;549.58;497.77;;;;;;;;;;;;;-57
2022/03/25 07:21:46;;;;;;;553.03;501.01;;;;;;;;;;;;;-51
2022/03/25 07:24:46;;;;;;;550.97;498.93;;;;;;;;;;;;;-51
2022/03/25 07:27:46;;;;;;;555.59;503.56;;;;;;;;;;;;;-50
2022/03/25 07:30:46;;;;;;;552.71;500.66;;;;;;;;;;;;;-51
2022/03/25 07:33:46;;;;;;;547.94;496.01;;;;;;;;;;;;;-51
2022/03/25 07:36:46;;;;;;;551.09;498.99;;;;;;;;;;;;;-57
2022/03/25 07:39:46;;;;;;;549.65;497.91;;;;;;;;;;;;;-56
2022/03/25 07:42:46;;;;;;;550.25;498.41;;;;;;;;;;;;;-51
2022/03/25 07:45:46;;;;;;;556.26;504.11;;;;;;;;;;;;;-50
2022/03/25 07:48:45;;;;;;;551.73;499.69;;;;;;;;;;;;;-59
2022/03/25 07:51:46;;;;;;;548.89;497.03;;;;;;;;;;;;;-59
2022/03/25 07:54:46;;;;;;;552.27;500.25;;;;;;;;;;;;;-50
2022/03/25 07:57:46;;;;;;;546.88;495.18;;;;;;;;;;;;;-57
2022/03/25 08:00:46;;;;;;;550.43;498.59;;;;;;;;;;;;;-52
2022/03/25 08:03:46;;;;;;;548.26;496.40;;;;;;;;;;;;;-51
2022/03/25 08:06:46;;;;;;;548.91;496.91;;;;;;;;;;;;;-59
2022/03/25 08:09:46;;;;;;;547.04;495.15;;;;;;;;;;;;;-56
2022/03/25 08:12:46;;;;;;;548.30;496.41;;;;;;;;;;;;;-57
2022/03/25 08:15:46;;;;;;;549.03;497.10;;;;;;;;;;;;;-59
2022/03/25 08:18:46;;;;;;;551.19;499.16;;;;;;;;;;;;;-50
2022/03/25 08:21:46;;;;;;;549.25;497.43;;;;;;;;;;;;;-50
2022/03/25 08:27:52;;;;;;;548.58;496.74;;;;;;;;;;;;;-56
2022/03/25 08:30:46;;;;;;;551.08;499.22;;;;;;;;;;;;;-57
2022/03/25 08:33:46;;;;;;;549.73;497.87;;;;;;;;;;;;;-56
2022/03/25 08:36:46;;;;;;;548.68;496.85;;;;;;;;;;;;;-56
2022/03/25 08:39:46;;;;;;;544.89;493.23;;;;;;;;;;;;;-57
2022/03/25 08:42:46;;;;;;;551.82;499.77;;;;;;;;;;;;;-52
2022/03/25 08:45:46;;;;;;;550.79;498.88;;;;;;;;;;;;;-51
2022/03/25 08:48:46;;;;;;;545.64;493.90;;;;;;;;;;;;;-51
2022/03/25 08:51:46;;;;;;;545.83;494.07;;;;;;;;;;;;;-50
2022/03/25 08:54:46;;;;;;;547.95;496.07;;;;;;;;;;;;;-59
2022/03/25 08:57:46;;;;;;;546.47;494.66;;;;;;;;;;;;;-51
2022/03/25 09:00:45;;;;;;;546.88;495.04;;;;;;;;;;;;;-51
2022/03/25 09:03:46;;;;;;;547.99;496.09;;;;;;;;;;;;;-57
2022/03/25 09:06:46;;;;;;;549.35;497.44;;;;;;;;;;;;;-59
2022/03/25 09:09:47;;;;;;;544.88;493.03;;;;;;;;;;;;;-60
2022/03/25 09:12:46;;;;;;;544.49;492.72;;;;;;;;;;;;;-57
2022/03/25 09:15:46;;;;;;;546.97;495.09;;;;;;;;;;;;;-54
2022/03/25 09:18:46;;;;;;;547.93;496.09;;;;;;;;;;;;;-56
2022/03/25 09:21:46;;;;;;;549.01;497.07;;;;;;;;;;;;;-61
2022/03/25 09:24:46;;;;;;;554.46;502.25;;;;;;;;;;;;;-60
2022/03/25 09:27:46;;;;;;;554.82;502.73;;;;;;;;;;;;;-54
2022/03/25 09:30:46;;;;;;;557.87;505.47;;;;;;;;;;;;;-58
2022/03/25 09:33:45;;;;;;;557.96;505.71;;;;;;;;;;;;;-53
2022/03/25 09:36:46;;;;;;;562.93;510.40;;;;;;;;;;;;;-58
2022/03/25 09:39:46;;;;;;;561.49;509.15;;;;;;;;;;;;;-53
2022/03/25 09:42:45;;;;;;;560.46;508.07;;;;;;;;;;;;;-53
2022/03/25 09:45:46;;;;;;;559.03;506.80;;;;;;;;;;;;;-62
2022/03/25 09:48:46;;;;;;;567.55;515.00;;;;;;;;;;;;;-59
2022/03/25 09:51:46;;;;;;;570.39;517.67;;;;;;;;;;;;;-56
2022/03/25 09:54:46;;;;;;;570.27;517.52;;;;;;;;;;;;;-54
2022/03/25 09:57:46;;;;;;;570.53;517.87;;;;;;;;;;;;;-51
2022/03/25 10:00:46;;;;;;;571.53;518.73;;;;;;;;;;;;;-58
2022/03/25 10:03:45;;;;;;;571.47;518.76;;;;;;;;;;;;;-51
2022/03/25 10:06:46;;;;;;;572.59;519.45;;;;;;;;;;;;;-57
2022/03/25 10:09:46;;;;;;;572.38;519.46;;;;;;;;;;;;;-49
2022/03/25 10:12:46;;;;;;;576.98;523.67;;;;;;;;;;;;;-53
2022/03/25 10:15:45;;;;;;;578.57;525.39;;;;;;;;;;;;;-53
2022/03/25 10:18:46;;;;;;;577.73;524.45;;;;;;;;;;;;;-52
2022/03/25 10:21:46;;;;;;;575.92;522.52;;;;;;;;;;;;;-56
2022/03/25 10:24:46;;;;;;;583.93;530.39;;;;;;;;;;;;;-54
2022/03/25 10:27:46;;;;;;;578.27;524.97;;;;;;;;;;;;;-58
2022/03/25 10:30:47;;;;;;;586.73;533.16;;;;;;;;;;;;;-57
2022/03/25 10:33:45;;;;;;;582.33;529.03;;;;;;;;;;;;;-55
2022/03/25 10:36:45;;;;;;;585.75;532.27;;;;;;;;;;;;;-54
2022/03/25 10:39:46;;;;;;;586.78;532.26;;;;;;;;;;;;;-51
2022/03/25 10:42:46;;;;;;;579.65;525.99;;;;;;;;;;;;;-54
2022/03/25 10:45:46;;;;;;;584.14;530.55;;;;;;;;;;;;;-57
2022/03/25 10:48:46;;;;;;;576.61;523.21;;;;;;;;;;;;;-60
2022/03/25 10:51:46;;;;;;;582.95;529.59;;;;;;;;;;;;;-52
2022/03/25 10:54:45;;;;;;;580.01;526.63;;;;;;;;;;;;;-57
2022/03/25 10:57:46;;;;;;;581.03;527.89;;;;;;;;;;;;;-54
2022/03/25 11:00:46;;;;;;;583.56;530.23;;;;;;;;;;;;;-54
2022/03/25 11:03:46;;;;;;;580.43;526.94;;;;;;;;;;;;;-56
2022/03/25 11:06:46;;;;;;;579.25;525.84;;;;;;;;;;;;;-49
2022/03/25 11:09:46;;;;;;;584.83;531.28;;;;;;;;;;;;;-53
2022/03/25 11:12:46;;;;;;;580.29;526.74;;;;;;;;;;;;;-56
2022/03/25 11:15:45;;;;;;;582.21;528.67;;;;;;;;;;;;;-56
2022/03/25 11:18:46;;;;;;;582.66;529.25;;;;;;;;;;;;;-60
2022/03/25 11:21:46;;;;;;;580.75;527.40;;;;;;;;;;;;;-60
2022/03/25 11:24:46;;;;;;;584.45;530.87;;;;;;;;;;;;;-55
2022/03/25 11:27:46;;;;;;;585.08;531.45;;;;;;;;;;;;;-56
2022/03/25 11:30:46;;;;;;;586.93;533.31;;;;;;;;;;;;;-54
2022/03/25 11:33:46;;;;;;;585.37;531.95;;;;;;;;;;;;;-54
2022/03/25 11:36:45;;;;;;;587.69;534.13;;;;;;;;;;;;;-54
2022/03/25 11:39:45;;;;;;;590.15;536.47;;;;;;;;;;;;;-55
2022/03/25 11:42:46;;;;;;;591.48;537.86;;;;;;;;;;;;;-54
2022/03/25 11:45:46;;;;;;;590.08;536.47;;;;;;;;;;;;;-52
2022/03/25 11:48:46;;;;;;;584.57;531.32;;;;;;;;;;;;;-56
2022/03/25 11:51:46;;;;;;;591.19;537.52;;;;;;;;;;;;;-59
2022/03/25 11:54:46;;;;;;;595.17;541.33;;;;;;;;;;;;;-58
2022/03/25 11:57:46;;;;;;;591.51;537.77;;;;;;;;;;;;;-56
2022/03/25 12:00:46;;;;;;;592.81;538.89;;;;;;;;;;;;;-56
2022/03/25 12:03:47;;;;;;;599.09;544.92;;;;;;;;;;;;;-55
2022/03/25 12:06:45;;;;;;;597.21;543.35;;;;;;;;;;;;;-53
2022/03/25 12:09:46;;;;;;;594.93;541.29;;;;;;;;;;;;;-59
2022/03/25 12:12:46;;;;;;;592.70;539.20;;;;;;;;;;;;;-56
2022/03/25 12:15:46;;;;;;;595.23;541.23;;;;;;;;;;;;;-63
2022/03/25 12:18:47;;;;;;;594.40;540.52;;;;;;;;;;;;;-51
2022/03/25 12:21:47;;;;;;;596.74;542.87;;;;;;;;;;;;;-52
2022/03/25 12:24:46;;;;;;;600.64;546.63;;;;;;;;;;;;;-54
2022/03/25 12:27:45;;;;;;;599.47;545.67;;;;;;;;;;;;;-56
2022/03/25 12:30:46;;;;;;;603.21;549.03;;;;;;;;;;;;;-58
2022/03/25 12:33:46;;;;;;;605.54;551.39;;;;;;;;;;;;;-57
2022/03/25 12:36:45;;;;;;;604.91;550.50;;;;;;;;;;;;;-59
2022/03/25 12:39:45;;;;;;;602.85;548.72;;;;;;;;;;;;;-53
2022/03/25 12:42:46;;;;;;;606.59;552.28;;;;;;;;;;;;;-52
2022/03/25 12:45:46;;;;;;;603.99;549.88;;;;;;;;;;;;;-60
2022/03/25 12:48:46;;;;;;;606.57;552.30;;;;;;;;;;;;;-61
2022/03/25 12:51:45;;;;;;;601.53;547.39;;;;;;;;;;;;;-59
2022/03/25 12:54:46;;;;;;;596.55;542.56;;;;;;;;;;;;;-61
2022/03/25 12:57:46;;;;;;;598.50;544.29;;;;;;;;;;;;;-50
2022/03/25 13:00:45;;;;;;;601.14;546.91;;;;;;;;;;;;;-54
2022/03/25 13:03:47;;;;;;;598.93;545.05;;;;;;;;;;;;;-49
2022/03/25 13:06:46;;;;;;;599.46;545.53;;;;;;;;;;;;;-53
2022/03/25 13:09:45;;;;;;;594.36;540.60;;;;;;;;;;;;;-53
2022/03/25 13:12:50;;;;;;;595.99;542.19;;;;;;;;;;;;;-55
2022/03/25 13:15:47;;;;;;;598.78;544.99;;;;;;;;;;;;;-55
2022/03/25 13:18:45;;;;;;;599.45;545.52;;;;;;;;;;;;;-53
2022/03/25 13:21:46;;;;;;;600.13;546.30;;;;;;;;;;;;;-55
2022/03/25 13:24:46;;;;;;;598.93;545.09;;;;;;;;;;;;;-50
2022/03/25 13:27:46;;;;;;;600.91;547.01;;;;;;;;;;;;;-50
2022/03/25 13:30:47;;;;;;;599.22;545.37;;;;;;;;;;;;;-50
2022/03/25 13:33:46;;;;;;;599.17;545.29;;;;;;;;;;;;;-55
2022/03/25 13:36:46;;;;;;;598.57;544.76;;;;;;;;;;;;;-51
2022/03/25 13:39:46;;;;;;;600.59;546.60;;;;;;;;;;;;;-56
2022/03/25 13:42:45;;;;;;;599.47;545.63;;;;;;;;;;;;;-55
2022/03/25 13:45:46;;;;;;;595.53;541.57;;;;;;;;;;;;;-57
2022/03/25 13:48:46;;;;;;;595.62;541.94;;;;;;;;;;;;;-57
2022/03/25 13:51:45;;;;;;;600.77;546.80;;;;;;;;;;;;;-53
2022/03/25 13:54:46;;;;;;;594.99;541.35;;;;;;;;;;;;;-54
2022/03/25 13:57:46;;;;;;;596.35;542.60;;;;;;;;;;;;;-56
2022/03/25 14:00:45;;;;;;;596.68;543.06;;;;;;;;;;;;;-58
2022/03/25 14:03:45;;;;;;;599.30;545.45;;;;;;;;;;;;;-56
2022/03/25 14:06:46;;;;;;;603.04;549.13;;;;;;;;;;;;;-54
2022/03/25 14:09:45;;;;;;;602.49;548.48;;;;;;;;;;;;;-52
2022/03/25 14:12:46;;;;;;;607.01;552.91;;;;;;;;;;;;;-54
2022/03/25 14:15:46;;;;;;;606.24;552.15;;;;;;;;;;;;;-57
2022/03/25 14:18:46;;;;;;;607.41;553.14;;;;;;;;;;;;;-53
2022/03/25 14:21:45;;;;;;;609.28;554.87;;;;;;;;;;;;;-54
2022/03/25 14:24:45;;;;;;;606.77;552.71;;;;;;;;;;;;;-52
2022/03/25 14:27:46;;;;;;;602.71;548.86;;;;;;;;;;;;;-59
2022/03/25 14:30:45;;;;;;;602.48;548.62;;;;;;;;;;;;;-54
2022/03/25 14:33:46;;;;;;;598.96;545.17;;;;;;;;;;;;;-55
2022/03/25 14:36:46;;;;;;;599.39;545.59;;;;;;;;;;;;;-52
2022/03/25 14:39:45;;;;;;;590.06;536.45;;;;;;;;;;;;;-55
2022/03/25 14:42:45;;;;;;;592.62;539.10;;;;;;;;;;;;;-56
2022/03/25 14:45:46;;;;;;;589.42;535.83;;;;;;;;;;;;;-59
2022/03/25 14:48:46;;;;;;;591.91;538.37;;;;;;;;;;;;;-54
2022/03/25 14:51:46;;;;;;;591.31;537.70;;;;;;;;;;;;;-55
2022/03/25 14:54:46;;;;;;;595.77;541.79;;;;;;;;;;;;;-52
2022/03/25 14:57:46;;;;;;;594.63;540.95;;;;;;;;;;;;;-57
2022/03/25 15:00:45;;;;;;;592.37;538.67;;;;;;;;;;;;;-60
2022/03/25 15:03:45;;;;;;;592.24;538.61;;;;;;;;;;;;;-58
2022/03/25 15:06:46;;;;;;;596.87;543.00;;;;;;;;;;;;;-59
2022/03/25 15:09:46;;;;;;;597.95;544.07;;;;;;;;;;;;;-59
2022/03/25 15:12:48;;;;;;;599.13;545.09;;;;;;;;;;;;;-59
2022/03/25 15:15:46;;;;;;;600.21;546.19;;;;;;;;;;;;;-57
2022/03/25 15:18:46;;;;;;;598.27;543.31;;;;;;;;;;;;;-57
2022/03/25 15:21:46;;;;;;;596.91;542.96;;;;;;;;;;;;;-54
2022/03/25 15:24:45;;;;;;;601.62;547.65;;;;;;;;;;;;;-53
2022/03/25 15:27:46;;;;;;;601.98;547.98;;;;;;;;;;;;;-59
2022/03/25 15:36:46;;;;;;;603.61;549.57;;;;;;;;;;;;;-53
2022/03/25 15:40:03;;;;;;;601.00;547.13;;;;;;;;;;;;;-53
2022/03/25 15:42:45;;;;;;;598.72;544.94;;;;;;;;;;;;;-53
2022/03/25 15:45:46;;;;;;;597.71;544.05;;;;;;;;;;;;;-54
2022/03/25 15:48:46;;;;;;;599.47;545.78;;;;;;;;;;;;;-59
2022/03/25 15:51:48;;;;;;;595.40;541.85;;;;;;;;;;;;;-53
2022/03/25 15:54:46;;;;;;;596.23;542.57;;;;;;;;;;;;;-57
2022/03/25 15:58:04;;;;;;;594.58;540.75;;;;;;;;;;;;;-53
2022/03/25 16:00:46;;;;;;;596.33;542.64;;;;;;;;;;;;;-54
2022/03/25 16:03:45;;;;;;;597.18;543.35;;;;;;;;;;;;;-51
2022/03/25 16:06:48;;;;;;;593.55;539.68;;;;;;;;;;;;;-58
2022/03/25 16:09:45;;;;;;;590.54;536.82;;;;;;;;;;;;;-58
2022/03/25 16:12:46;;;;;;;590.27;536.51;;;;;;;;;;;;;-59
2022/03/25 16:15:46;;;;;;;589.39;536.01;;;;;;;;;;;;;-50
2022/03/25 16:18:48;;;;;;;590.01;536.45;;;;;;;;;;;;;-51
2022/03/25 16:21:47;;;;;;;587.49;534.03;;;;;;;;;;;;;-54
2022/03/25 16:24:46;;;;;;;591.59;538.03;;;;;;;;;;;;;-57
2022/03/25 16:27:46;;;;;;;593.84;539.96;;;;;;;;;;;;;-55
2022/03/25 16:30:45;;;;;;;592.93;539.20;;;;;;;;;;;;;-56
2022/03/25 16:33:46;;;;;;;594.81;541.10;;;;;;;;;;;;;-56
2022/03/25 16:36:46;;;;;;;596.52;542.77;;;;;;;;;;;;;-52
2022/03/25 16:39:45;;;;;;;598.65;544.83;;;;;;;;;;;;;-54
2022/03/25 16:42:46;;;;;;;600.67;546.70;;;;;;;;;;;;;-56
2022/03/25 16:45:46;;;;;;;598.29;544.50;;;;;;;;;;;;;-54
2022/03/25 16:48:45;;;;;;;597.18;543.20;;;;;;;;;;;;;-58
2022/03/25 16:51:45;;;;;;;595.11;541.43;;;;;;;;;;;;;-56
2022/03/25 16:54:46;;;;;;;594.81;541.17;;;;;;;;;;;;;-51
2022/03/25 16:57:46;;;;;;;600.05;546.09;;;;;;;;;;;;;-59
2022/03/25 17:00:45;;;;;;;598.69;544.87;;;;;;;;;;;;;-50
2022/03/25 17:03:50;;;;;;;604.13;550.20;;;;;;;;;;;;;-56
2022/03/25 17:06:45;;;;;;;598.90;545.11;;;;;;;;;;;;;-54
2022/03/25 17:09:45;;;;;;;605.94;551.63;;;;;;;;;;;;;-48
2022/03/25 17:12:45;;;;;;;601.73;547.89;;;;;;;;;;;;;-47
2022/03/25 17:15:46;;;;;;;605.38;551.17;;;;;;;;;;;;;-51
2022/03/25 17:18:46;;;;;;;607.25;553.00;;;;;;;;;;;;;-49
2022/03/25 17:21:46;;;;;;;606.10;551.97;;;;;;;;;;;;;-58
2022/03/25 17:24:46;;;;;;;607.35;553.23;;;;;;;;;;;;;-57
2022/03/25 17:27:46;;;;;;;603.91;549.97;;;;;;;;;;;;;-58
2022/03/25 17:30:45;;;;;;;606.89;552.84;;;;;;;;;;;;;-53
2022/03/25 17:33:45;;;;;;;613.20;558.88;;;;;;;;;;;;;-58
2022/03/25 17:36:46;;;;;;;608.53;554.27;;;;;;;;;;;;;-56
2022/03/25 17:39:46;;;;;;;610.71;556.49;;;;;;;;;;;;;-54
2022/03/25 17:42:45;;;;;;;613.88;559.47;;;;;;;;;;;;;-50
2022/03/25 17:45:47;;;;;;;610.87;556.66;;;;;;;;;;;;;-55
2022/03/25 17:48:46;;;;;;;610.53;556.30;;;;;;;;;;;;;-53
2022/03/25 17:51:46;;;;;;;613.24;558.77;;;;;;;;;;;;;-55
2022/03/25 17:54:45;;;;;;;614.47;560.09;;;;;;;;;;;;;-53
2022/03/25 17:57:46;;;;;;;612.64;558.17;;;;;;;;;;;;;-50
2022/03/25 18:00:45;;;;;;;611.15;556.79;;;;;;;;;;;;;-65
2022/03/25 18:03:45;;;;;;;612.89;558.45;;;;;;;;;;;;;-57
2022/03/25 18:06:46;;;;;;;611.77;557.37;;;;;;;;;;;;;-51
2022/03/25 18:09:46;;;;;;;614.35;559.80;;;;;;;;;;;;;-52
2022/03/25 18:12:45;;;;;;;610.49;556.15;;;;;;;;;;;;;-54
2022/03/25 18:15:45;;;;;;;609.65;555.51;;;;;;;;;;;;;-56
2022/03/25 18:18:46;;;;;;;611.57;557.16;;;;;;;;;;;;;-51
2022/03/25 18:21:45;;;;;;;614.89;560.35;;;;;;;;;;;;;-51
2022/03/25 18:24:45;;;;;;;614.74;560.15;;;;;;;;;;;;;-54
2022/03/25 18:27:45;;;;;;;609.56;555.13;;;;;;;;;;;;;-58
2022/03/25 18:30:46;;;;;;;610.43;556.14;;;;;;;;;;;;;-52
2022/03/25 18:33:45;;;;;;;611.87;557.51;;;;;;;;;;;;;-57
2022/03/25 18:36:46;;;;;;;609.06;554.92;;;;;;;;;;;;;-54
2022/03/25 18:39:46;;;;;;;610.39;556.13;;;;;;;;;;;;;-50
2022/03/25 18:42:45;;;;;;;607.13;553.05;;;;;;;;;;;;;-59
2022/03/25 18:45:47;;;;;;;608.02;553.91;;;;;;;;;;;;;-54
2022/03/25 18:48:46;;;;;;;606.01;551.99;;;;;;;;;;;;;-56
2022/03/25 18:51:46;;;;;;;606.31;552.21;;;;;;;;;;;;;-56
2022/03/25 18:54:45;;;;;;;605.91;551.85;;;;;;;;;;;;;-56
2022/03/25 18:57:45;;;;;;;603.47;549.43;;;;;;;;;;;;;-54
2022/03/25 19:00:46;;;;;;;607.91;553.76;;;;;;;;;;;;;-55
2022/03/25 19:03:45;;;;;;;603.87;549.94;;;;;;;;;;;;;-56
2022/03/25 19:06:45;;;;;;;607.55;553.41;;;;;;;;;;;;;-59
2022/03/25 19:09:47;;;;;;;605.49;551.49;;;;;;;;;;;;;-56
2022/03/25 19:12:46;;;;;;;608.26;554.17;;;;;;;;;;;;;-59
2022/03/25 19:15:45;;;;;;;609.04;554.89;;;;;;;;;;;;;-54
2022/03/25 19:18:45;;;;;;;606.65;552.53;;;;;;;;;;;;;-54
2022/03/25 19:21:46;;;;;;;610.41;556.17;;;;;;;;;;;;;-54
2022/03/25 19:24:46;;;;;;;606.09;551.97;;;;;;;;;;;;;-54
2022/03/25 19:27:45;;;;;;;605.78;551.73;;;;;;;;;;;;;-54
2022/03/25 19:30:45;;;;;;;608.52;554.37;;;;;;;;;;;;;-59
2022/03/25 19:33:46;;;;;;;605.71;551.61;;;;;;;;;;;;;-52
2022/03/25 19:36:45;;;;;;;605.35;551.27;;;;;;;;;;;;;-51
2022/03/25 19:39:46;;;;;;;604.78;550.76;;;;;;;;;;;;;-52
2022/03/25 19:42:46;;;;;;;605.65;551.55;;;;;;;;;;;;;-52
2022/03/25 19:45:47;;;;;;;604.68;550.69;;;;;;;;;;;;;-54
2022/03/25 19:48:45;;;;;;;605.59;551.37;;;;;;;;;;;;;-55
2022/03/25 19:51:45;;;;;;;602.95;549.03;;;;;;;;;;;;;-54
2022/03/25 19:54:46;;;;;;;605.16;551.03;;;;;;;;;;;;;-51
2022/03/25 19:57:45;;;;;;;606.59;552.55;;;;;;;;;;;;;-51
2022/03/25 20:00:45;;;;;;;605.79;551.71;;;;;;;;;;;;;-58
2022/03/25 20:03:46;;;;;;;609.40;555.19;;;;;;;;;;;;;-59
2022/03/25 20:06:45;;;;;;;610.17;555.83;;;;;;;;;;;;;-52
2022/03/25 20:09:45;;;;;;;610.06;555.87;;;;;;;;;;;;;-58
2022/03/25 20:12:45;;;;;;;609.33;555.06;;;;;;;;;;;;;-57
2022/03/25 20:15:45;;;;;;;609.71;555.52;;;;;;;;;;;;;-51
2022/03/25 20:18:45;;;;;;;608.18;554.09;;;;;;;;;;;;;-54
2022/03/25 20:21:46;;;;;;;605.66;551.62;;;;;;;;;;;;;-54
2022/03/25 20:24:47;;;;;;;607.83;553.68;;;;;;;;;;;;;-57
2022/03/25 20:27:46;;;;;;;604.84;550.81;;;;;;;;;;;;;-54
2022/03/25 20:30:45;;;;;;;603.75;549.73;;;;;;;;;;;;;-55
2022/03/25 20:33:45;;;;;;;605.46;551.44;;;;;;;;;;;;;-52
2022/03/25 20:36:46;;;;;;;603.29;549.32;;;;;;;;;;;;;-57
2022/03/25 20:39:45;;;;;;;604.25;550.25;;;;;;;;;;;;;-51
2022/03/25 20:42:45;;;;;;;602.85;548.79;;;;;;;;;;;;;-56
2022/03/25 20:45:46;;;;;;;603.68;549.59;;;;;;;;;;;;;-54
2022/03/25 20:48:46;;;;;;;607.61;553.13;;;;;;;;;;;;;-56
2022/03/25 20:51:45;;;;;;;602.43;548.20;;;;;;;;;;;;;-58
2022/03/25 20:54:45;;;;;;;593.75;540.11;;;;;;;;;;;;;-58
2022/03/25 20:57:46;;;;;;;593.23;539.50;;;;;;;;;;;;;-59
2022/03/25 21:00:45;;;;;;;594.05;540.39;;;;;;;;;;;;;-59
2022/03/25 21:03:45;;;;;;;596.37;542.42;;;;;;;;;;;;;-52
2022/03/25 21:06:46;;;;;;;595.68;541.71;;;;;;;;;;;;;-52
2022/03/25 21:09:45;;;;;;;592.13;538.07;;;;;;;;;;;;;-55
2022/03/25 21:12:45;;;;;;;596.71;542.58;;;;;;;;;;;;;-56
2022/03/25 21:15:45;;;;;;;592.06;538.33;;;;;;;;;;;;;-60
2022/03/25 21:18:45;;;;;;;597.15;543.27;;;;;;;;;;;;;-61